sensor_id;sensor_type;location;lat;lon;timestamp;pressure;altitude;pressure_sealevel;temperature;humidity
68855;BME280;69984;-43.570;172.580;2023-05-25T00:01:42;101644.28;;;21.54;nan
68855;BME280;69984;-43.570;172.580;2023-05-25T00:04:14;101652.34;;;21.88;nan
68855;BME280;69984;-43.570;172.580;2023-05-25T00:06:43;101644.19;;;21.96;nan
68855;BME280;69984;-43.570;172.580;2023-05-25T00:09:12;101648.41;;;21.84;nan
68855;BME280;69984;-43.570;172.580;2023-05-25T00:11:39;101640.31;;;22.39;nan
68855;BME280;69984;-43.570;172.580;2023-05-25T00:14:06;101633.41;;;21.83;nan
68855;BME280;69984;-43.570;172.580;2023-05-25T00:16:33;101627.69;;;21.86;nan
68855;BME280;69984;-43.570;172.580;2023-05-25T00:19:05;101630.44;;;21.99;nan
68855;BME280;69984;-43.570;172.580;2023-05-25T00:21:32;101638.47;;;21.71;nan
68855;BME280;69984;-43.570;172.580;2023-05-25T00:24:06;101628.88;;;22.11;nan
68855;BME280;69984;-43.570;172.580;2023-05-25T00:26:37;101621.50;;;21.85;nan
68855;BME280;69984;-43.570;172.580;2023-05-25T00:29:04;101614.16;;;22.82;nan
68855;BME280;69984;-43.570;172.580;2023-05-25T00:31:32;101617.84;;;23.01;nan
68855;BME280;69984;-43.570;172.580;2023-05-25T00:34:00;101606.69;;;22.65;nan
68855;BME280;69984;-43.570;172.580;2023-05-25T00:36:27;101597.09;;;23.36;nan
68855;BME280;69984;-43.570;172.580;2023-05-25T00:38:54;101599.34;;;23.59;nan
68855;BME280;69984;-43.570;172.580;2023-05-25T00:41:21;101594.44;;;23.36;nan
68855;BME280;69984;-43.570;172.580;2023-05-25T00:43:49;101599.34;;;23.59;nan
68855;BME280;69984;-43.570;172.580;2023-05-25T00:46:16;101588.19;;;23.81;nan
68855;BME280;69984;-43.570;172.580;2023-05-25T00:48:44;101588.25;;;23.55;nan
68855;BME280;69984;-43.570;172.580;2023-05-25T00:51:13;101578.38;;;22.97;nan
68855;BME280;69984;-43.570;172.580;2023-05-25T00:53:41;101580.00;;;22.91;nan
68855;BME280;69984;-43.570;172.580;2023-05-25T00:56:29;101577.75;;;23.34;nan
68855;BME280;69984;-43.570;172.580;2023-05-25T00:58:56;101573.41;;;23.66;nan
68855;BME280;69984;-43.570;172.580;2023-05-25T01:01:26;101569.63;;;23.86;nan
68855;BME280;69984;-43.570;172.580;2023-05-25T01:03:56;101552.88;;;23.14;nan
68855;BME280;69984;-43.570;172.580;2023-05-25T01:06:25;101554.41;;;23.80;nan
68855;BME280;69984;-43.570;172.580;2023-05-25T01:09:00;101537.00;;;24.09;nan
68855;BME280;69984;-43.570;172.580;2023-05-25T01:11:35;101534.25;;;24.60;nan
68855;BME280;69984;-43.570;172.580;2023-05-25T01:14:03;101523.47;;;24.35;nan
68855;BME280;69984;-43.570;172.580;2023-05-25T01:16:30;101527.69;;;24.18;nan
68855;BME280;69984;-43.570;172.580;2023-05-25T01:18:57;101526.25;;;24.22;nan
68855;BME280;69984;-43.570;172.580;2023-05-25T01:21:45;101525.75;;;24.32;nan
68855;BME280;69984;-43.570;172.580;2023-05-25T01:27:42;101527.44;;;25.14;nan
68855;BME280;69984;-43.570;172.580;2023-05-25T01:30:01;101529.13;;;25.33;nan
68855;BME280;69984;-43.570;172.580;2023-05-25T01:32:30;101524.72;;;24.96;nan
68855;BME280;69984;-43.570;172.580;2023-05-25T01:34:58;101524.88;;;24.00;nan
68855;BME280;69984;-43.570;172.580;2023-05-25T01:37:26;101522.63;;;24.42;nan
68855;BME280;69984;-43.570;172.580;2023-05-25T01:39:53;101524.50;;;24.97;nan
68855;BME280;69984;-43.570;172.580;2023-05-25T01:42:21;101513.28;;;24.51;nan
68855;BME280;69984;-43.570;172.580;2023-05-25T01:44:48;101522.66;;;25.16;nan
68855;BME280;69984;-43.570;172.580;2023-05-25T01:52:35;101514.13;;;23.56;nan
68855;BME280;69984;-43.570;172.580;2023-05-25T01:55:22;101509.63;;;24.45;nan
68855;BME280;69984;-43.570;172.580;2023-05-25T01:57:54;101508.34;;;24.48;nan
68855;BME280;69984;-43.570;172.580;2023-05-25T02:00:26;101506.88;;;24.20;nan
68855;BME280;69984;-43.570;172.580;2023-05-25T02:02:57;101504.44;;;23.68;nan
68855;BME280;69984;-43.570;172.580;2023-05-25T02:05:24;101492.88;;;24.50;nan
68855;BME280;69984;-43.570;172.580;2023-05-25T02:07:53;101495.75;;;24.10;nan
68855;BME280;69984;-43.570;172.580;2023-05-25T02:10:20;101484.63;;;24.20;nan
68855;BME280;69984;-43.570;172.580;2023-05-25T02:12:47;101481.16;;;24.13;nan
68855;BME280;69984;-43.570;172.580;2023-05-25T02:15:15;101486.31;;;24.70;nan
68855;BME280;69984;-43.570;172.580;2023-05-25T02:17:42;101478.13;;;23.96;nan
68855;BME280;69984;-43.570;172.580;2023-05-25T02:20:10;101478.66;;;24.18;nan
68855;BME280;69984;-43.570;172.580;2023-05-25T02:22:37;101469.13;;;23.84;nan
68855;BME280;69984;-43.570;172.580;2023-05-25T02:25:05;101470.13;;;23.89;nan
68855;BME280;69984;-43.570;172.580;2023-05-25T02:27:35;101470.56;;;23.86;nan
68855;BME280;69984;-43.570;172.580;2023-05-25T02:30:02;101461.56;;;24.12;nan
68855;BME280;69984;-43.570;172.580;2023-05-25T02:32:29;101462.69;;;23.54;nan
68855;BME280;69984;-43.570;172.580;2023-05-25T02:34:56;101451.28;;;24.09;nan
68855;BME280;69984;-43.570;172.580;2023-05-25T02:37:23;101465.66;;;23.77;nan
68855;BME280;69984;-43.570;172.580;2023-05-25T02:39:50;101461.03;;;23.97;nan
68855;BME280;69984;-43.570;172.580;2023-05-25T02:42:17;101460.22;;;23.52;nan
68855;BME280;69984;-43.570;172.580;2023-05-25T02:44:44;101457.03;;;23.75;nan
68855;BME280;69984;-43.570;172.580;2023-05-25T02:47:16;101451.19;;;23.47;nan
68855;BME280;69984;-43.570;172.580;2023-05-25T02:49:46;101450.56;;;23.89;nan
68855;BME280;69984;-43.570;172.580;2023-05-25T02:52:13;101452.13;;;24.66;nan
68855;BME280;69984;-43.570;172.580;2023-05-25T02:54:41;101447.75;;;23.77;nan
68855;BME280;69984;-43.570;172.580;2023-05-25T02:57:08;101447.31;;;24.18;nan
68855;BME280;69984;-43.570;172.580;2023-05-25T02:59:35;101444.34;;;23.95;nan
68855;BME280;69984;-43.570;172.580;2023-05-25T03:02:02;101446.44;;;23.86;nan
68855;BME280;69984;-43.570;172.580;2023-05-25T03:04:29;101442.63;;;23.69;nan
68855;BME280;69984;-43.570;172.580;2023-05-25T03:06:59;101434.75;;;23.81;nan
68855;BME280;69984;-43.570;172.580;2023-05-25T03:09:26;101443.03;;;24.67;nan
68855;BME280;69984;-43.570;172.580;2023-05-25T03:11:53;101438.97;;;25.07;nan
68855;BME280;69984;-43.570;172.580;2023-05-25T03:14:20;101432.28;;;24.49;nan
68855;BME280;69984;-43.570;172.580;2023-05-25T03:16:48;101426.34;;;24.90;nan
68855;BME280;69984;-43.570;172.580;2023-05-25T03:19:15;101427.31;;;24.21;nan
68855;BME280;69984;-43.570;172.580;2023-05-25T03:21:44;101431.50;;;24.42;nan
68855;BME280;69984;-43.570;172.580;2023-05-25T03:24:11;101428.53;;;24.25;nan
68855;BME280;69984;-43.570;172.580;2023-05-25T03:26:38;101426.75;;;24.44;nan
68855;BME280;69984;-43.570;172.580;2023-05-25T03:29:05;101427.75;;;23.80;nan
68855;BME280;69984;-43.570;172.580;2023-05-25T03:31:32;101426.03;;;24.55;nan
68855;BME280;69984;-43.570;172.580;2023-05-25T03:33:59;101437.19;;;25.01;nan
68855;BME280;69984;-43.570;172.580;2023-05-25T03:36:26;101437.50;;;24.37;nan
68855;BME280;69984;-43.570;172.580;2023-05-25T03:38:53;101434.00;;;24.36;nan
68855;BME280;69984;-43.570;172.580;2023-05-25T03:41:20;101436.47;;;24.00;nan
68855;BME280;69984;-43.570;172.580;2023-05-25T03:43:47;101439.13;;;24.13;nan
68855;BME280;69984;-43.570;172.580;2023-05-25T03:46:14;101436.19;;;24.46;nan
68855;BME280;69984;-43.570;172.580;2023-05-25T03:48:41;101435.19;;;23.78;nan
68855;BME280;69984;-43.570;172.580;2023-05-25T03:51:08;101434.81;;;22.90;nan
68855;BME280;69984;-43.570;172.580;2023-05-25T03:53:35;101435.03;;;22.82;nan
68855;BME280;69984;-43.570;172.580;2023-05-25T03:56:03;101421.41;;;21.99;nan
68855;BME280;69984;-43.570;172.580;2023-05-25T03:58:30;101422.72;;;21.75;nan
68855;BME280;69984;-43.570;172.580;2023-05-25T04:00:58;101424.38;;;21.69;nan
68855;BME280;69984;-43.570;172.580;2023-05-25T04:03:25;101420.69;;;21.77;nan
68855;BME280;69984;-43.570;172.580;2023-05-25T04:05:52;101426.13;;;21.97;nan
68855;BME280;69984;-43.570;172.580;2023-05-25T04:08:20;101421.97;;;21.87;nan
68855;BME280;69984;-43.570;172.580;2023-05-25T04:10:47;101418.25;;;21.88;nan
68855;BME280;69984;-43.570;172.580;2023-05-25T04:13:14;101419.66;;;21.78;nan
68855;BME280;69984;-43.570;172.580;2023-05-25T04:15:41;101424.09;;;21.51;nan
68855;BME280;69984;-43.570;172.580;2023-05-25T04:18:09;101430.22;;;21.45;nan
68855;BME280;69984;-43.570;172.580;2023-05-25T04:20:36;101419.28;;;21.33;nan
68855;BME280;69984;-43.570;172.580;2023-05-25T04:23:03;101424.03;;;21.04;nan
68855;BME280;69984;-43.570;172.580;2023-05-25T04:25:30;101420.69;;;20.67;nan
68855;BME280;69984;-43.570;172.580;2023-05-25T04:27:57;101417.34;;;20.59;nan
68855;BME280;69984;-43.570;172.580;2023-05-25T04:30:24;101418.38;;;20.85;nan
68855;BME280;69984;-43.570;172.580;2023-05-25T04:32:51;101414.81;;;21.06;nan
68855;BME280;69984;-43.570;172.580;2023-05-25T04:35:20;101421.00;;;20.79;nan
68855;BME280;69984;-43.570;172.580;2023-05-25T04:37:48;101422.84;;;20.78;nan
68855;BME280;69984;-43.570;172.580;2023-05-25T04:40:16;101421.25;;;20.63;nan
68855;BME280;69984;-43.570;172.580;2023-05-25T04:42:43;101424.47;;;21.07;nan
68855;BME280;69984;-43.570;172.580;2023-05-25T04:45:10;101417.25;;;20.73;nan
68855;BME280;69984;-43.570;172.580;2023-05-25T04:47:42;101417.50;;;20.78;nan
68855;BME280;69984;-43.570;172.580;2023-05-25T04:50:10;101420.09;;;20.23;nan
68855;BME280;69984;-43.570;172.580;2023-05-25T04:52:38;101415.28;;;20.82;nan
68855;BME280;69984;-43.570;172.580;2023-05-25T04:55:05;101409.88;;;21.03;nan
68855;BME280;69984;-43.570;172.580;2023-05-25T04:57:32;101417.91;;;20.75;nan
68855;BME280;69984;-43.570;172.580;2023-05-25T04:59:59;101419.97;;;20.31;nan
68855;BME280;69984;-43.570;172.580;2023-05-25T05:02:26;101407.59;;;20.23;nan
68855;BME280;69984;-43.570;172.580;2023-05-25T05:04:53;101417.56;;;20.36;nan
68855;BME280;69984;-43.570;172.580;2023-05-25T05:07:20;101421.03;;;20.15;nan
68855;BME280;69984;-43.570;172.580;2023-05-25T05:09:48;101418.22;;;20.02;nan
68855;BME280;69984;-43.570;172.580;2023-05-25T05:12:15;101420.38;;;19.92;nan
68855;BME280;69984;-43.570;172.580;2023-05-25T05:14:42;101421.72;;;19.67;nan
68855;BME280;69984;-43.570;172.580;2023-05-25T05:17:09;101431.25;;;20.12;nan
68855;BME280;69984;-43.570;172.580;2023-05-25T05:19:37;101427.75;;;19.75;nan
68855;BME280;69984;-43.570;172.580;2023-05-25T05:22:04;101433.47;;;20.08;nan
68855;BME280;69984;-43.570;172.580;2023-05-25T05:24:31;101425.50;;;19.72;nan
68855;BME280;69984;-43.570;172.580;2023-05-25T05:26:58;101426.09;;;19.74;nan
68855;BME280;69984;-43.570;172.580;2023-05-25T05:29:25;101420.75;;;19.53;nan
68855;BME280;69984;-43.570;172.580;2023-05-25T05:31:54;101418.84;;;19.47;nan
68855;BME280;69984;-43.570;172.580;2023-05-25T05:34:21;101410.03;;;19.03;nan
68855;BME280;69984;-43.570;172.580;2023-05-25T05:36:48;101406.00;;;19.07;nan
68855;BME280;69984;-43.570;172.580;2023-05-25T05:39:15;101408.84;;;19.20;nan
68855;BME280;69984;-43.570;172.580;2023-05-25T05:41:42;101404.25;;;18.99;nan
68855;BME280;69984;-43.570;172.580;2023-05-25T05:44:14;101408.56;;;19.15;nan
68855;BME280;69984;-43.570;172.580;2023-05-25T05:46:41;101409.91;;;19.69;nan
68855;BME280;69984;-43.570;172.580;2023-05-25T05:49:08;101408.56;;;19.29;nan
68855;BME280;69984;-43.570;172.580;2023-05-25T05:51:35;101410.03;;;19.03;nan
68855;BME280;69984;-43.570;172.580;2023-05-25T05:54:03;101402.59;;;18.98;nan
68855;BME280;69984;-43.570;172.580;2023-05-25T05:56:30;101401.78;;;18.98;nan
68855;BME280;69984;-43.570;172.580;2023-05-25T05:58:57;101395.66;;;19.41;nan
68855;BME280;69984;-43.570;172.580;2023-05-25T06:01:25;101401.06;;;19.48;nan
68855;BME280;69984;-43.570;172.580;2023-05-25T06:03:51;101401.03;;;19.62;nan
68855;BME280;69984;-43.570;172.580;2023-05-25T06:06:20;101409.94;;;19.55;nan
68855;BME280;69984;-43.570;172.580;2023-05-25T06:08:47;101405.53;;;19.32;nan
68855;BME280;69984;-43.570;172.580;2023-05-25T06:11:14;101397.22;;;19.06;nan
68855;BME280;69984;-43.570;172.580;2023-05-25T06:13:41;101407.00;;;18.91;nan
68855;BME280;69984;-43.570;172.580;2023-05-25T06:16:08;101402.31;;;19.08;nan
68855;BME280;69984;-43.570;172.580;2023-05-25T06:18:35;101410.13;;;19.38;nan
68855;BME280;69984;-43.570;172.580;2023-05-25T06:21:02;101407.25;;;19.40;nan
68855;BME280;69984;-43.570;172.580;2023-05-25T06:23:29;101408.63;;;19.21;nan
68855;BME280;69984;-43.570;172.580;2023-05-25T06:25:56;101407.63;;;19.08;nan
68855;BME280;69984;-43.570;172.580;2023-05-25T06:28:23;101411.41;;;19.13;nan
68855;BME280;69984;-43.570;172.580;2023-05-25T06:30:50;101410.75;;;19.26;nan
68855;BME280;69984;-43.570;172.580;2023-05-25T06:33:17;101418.47;;;19.21;nan
68855;BME280;69984;-43.570;172.580;2023-05-25T06:35:44;101430.97;;;19.71;nan
68855;BME280;69984;-43.570;172.580;2023-05-25T06:38:11;101424.31;;;19.96;nan
68855;BME280;69984;-43.570;172.580;2023-05-25T06:40:38;101420.84;;;19.01;nan
68855;BME280;69984;-43.570;172.580;2023-05-25T06:43:06;101421.38;;;19.11;nan
68855;BME280;69984;-43.570;172.580;2023-05-25T06:45:33;101422.03;;;19.28;nan
68855;BME280;69984;-43.570;172.580;2023-05-25T06:48:00;101419.38;;;18.99;nan
68855;BME280;69984;-43.570;172.580;2023-05-25T06:50:27;101408.75;;;19.13;nan
68855;BME280;69984;-43.570;172.580;2023-05-25T06:52:54;101413.03;;;19.29;nan
68855;BME280;69984;-43.570;172.580;2023-05-25T06:55:21;101419.69;;;19.83;nan
68855;BME280;69984;-43.570;172.580;2023-05-25T06:57:48;101421.09;;;20.01;nan
68855;BME280;69984;-43.570;172.580;2023-05-25T07:00:16;101432.00;;;19.70;nan
68855;BME280;69984;-43.570;172.580;2023-05-25T07:02:43;101432.16;;;19.83;nan
68855;BME280;69984;-43.570;172.580;2023-05-25T07:05:10;101429.56;;;19.89;nan
68855;BME280;69984;-43.570;172.580;2023-05-25T07:07:37;101431.38;;;19.38;nan
68855;BME280;69984;-43.570;172.580;2023-05-25T07:10:04;101426.78;;;19.62;nan
68855;BME280;69984;-43.570;172.580;2023-05-25T07:12:32;101436.94;;;19.87;nan
68855;BME280;69984;-43.570;172.580;2023-05-25T07:14:59;101441.66;;;19.92;nan
68855;BME280;69984;-43.570;172.580;2023-05-25T07:17:26;101452.03;;;20.02;nan
68855;BME280;69984;-43.570;172.580;2023-05-25T07:19:54;101452.63;;;19.82;nan
68855;BME280;69984;-43.570;172.580;2023-05-25T07:22:21;101449.88;;;19.76;nan
68855;BME280;69984;-43.570;172.580;2023-05-25T07:24:49;101450.19;;;19.66;nan
68855;BME280;69984;-43.570;172.580;2023-05-25T07:27:16;101437.72;;;19.37;nan
68855;BME280;69984;-43.570;172.580;2023-05-25T07:29:44;101439.06;;;19.04;nan
68855;BME280;69984;-43.570;172.580;2023-05-25T07:32:11;101434.09;;;18.86;nan
68855;BME280;69984;-43.570;172.580;2023-05-25T07:34:38;101432.97;;;18.66;nan
68855;BME280;69984;-43.570;172.580;2023-05-25T07:37:05;101433.81;;;18.67;nan
68855;BME280;69984;-43.570;172.580;2023-05-25T07:39:35;101417.34;;;18.48;nan
68855;BME280;69984;-43.570;172.580;2023-05-25T07:42:02;101429.09;;;18.91;nan
68855;BME280;69984;-43.570;172.580;2023-05-25T07:44:29;101421.63;;;18.58;nan
68855;BME280;69984;-43.570;172.580;2023-05-25T07:46:56;101425.53;;;18.99;nan
68855;BME280;69984;-43.570;172.580;2023-05-25T07:49:23;101418.06;;;18.80;nan
68855;BME280;69984;-43.570;172.580;2023-05-25T07:51:51;101420.16;;;18.70;nan
68855;BME280;69984;-43.570;172.580;2023-05-25T07:54:18;101417.66;;;18.54;nan
68855;BME280;69984;-43.570;172.580;2023-05-25T07:56:44;101404.41;;;18.83;nan
68855;BME280;69984;-43.570;172.580;2023-05-25T07:59:12;101411.56;;;18.82;nan
68855;BME280;69984;-43.570;172.580;2023-05-25T08:01:39;101402.28;;;18.41;nan
68855;BME280;69984;-43.570;172.580;2023-05-25T08:04:06;101402.16;;;19.09;nan
68855;BME280;69984;-43.570;172.580;2023-05-25T08:06:33;101402.22;;;19.01;nan
68855;BME280;69984;-43.570;172.580;2023-05-25T08:09:03;101402.03;;;19.32;nan
68855;BME280;69984;-43.570;172.580;2023-05-25T08:11:30;101395.47;;;19.13;nan
68855;BME280;69984;-43.570;172.580;2023-05-25T08:13:57;101394.19;;;19.09;nan
68855;BME280;69984;-43.570;172.580;2023-05-25T08:16:25;101383.91;;;18.91;nan
68855;BME280;69984;-43.570;172.580;2023-05-25T08:18:52;101393.28;;;19.17;nan
68855;BME280;69984;-43.570;172.580;2023-05-25T08:21:19;101385.53;;;19.36;nan
68855;BME280;69984;-43.570;172.580;2023-05-25T08:23:46;101388.19;;;19.36;nan
68855;BME280;69984;-43.570;172.580;2023-05-25T08:26:15;101392.72;;;19.07;nan
68855;BME280;69984;-43.570;172.580;2023-05-25T08:28:42;101391.78;;;19.29;nan
68855;BME280;69984;-43.570;172.580;2023-05-25T08:31:09;101388.78;;;19.17;nan
68855;BME280;69984;-43.570;172.580;2023-05-25T08:33:37;101387.03;;;19.24;nan
68855;BME280;69984;-43.570;172.580;2023-05-25T08:36:04;101386.38;;;18.64;nan
68855;BME280;69984;-43.570;172.580;2023-05-25T08:38:31;101380.84;;;18.65;nan
68855;BME280;69984;-43.570;172.580;2023-05-25T08:41:02;101387.19;;;18.64;nan
68855;BME280;69984;-43.570;172.580;2023-05-25T08:43:32;101369.53;;;19.01;nan
68855;BME280;69984;-43.570;172.580;2023-05-25T08:46:09;101376.56;;;18.64;nan
68855;BME280;69984;-43.570;172.580;2023-05-25T08:48:37;101366.75;;;18.27;nan
68855;BME280;69984;-43.570;172.580;2023-05-25T08:51:08;101369.03;;;18.53;nan
68855;BME280;69984;-43.570;172.580;2023-05-25T08:53:37;101365.66;;;18.59;nan
68855;BME280;69984;-43.570;172.580;2023-05-25T08:56:16;101365.38;;;18.31;nan
68855;BME280;69984;-43.570;172.580;2023-05-25T08:59:16;101363.03;;;18.36;nan
68855;BME280;69984;-43.570;172.580;2023-05-25T09:01:49;101359.19;;;18.39;nan
68855;BME280;69984;-43.570;172.580;2023-05-25T09:04:18;101356.81;;;18.44;nan
68855;BME280;69984;-43.570;172.580;2023-05-25T09:06:47;101353.63;;;18.48;nan
68855;BME280;69984;-43.570;172.580;2023-05-25T09:09:14;101357.06;;;18.72;nan
68855;BME280;69984;-43.570;172.580;2023-05-25T09:11:41;101350.66;;;18.66;nan
68855;BME280;69984;-43.570;172.580;2023-05-25T09:14:10;101346.81;;;18.31;nan
68855;BME280;69984;-43.570;172.580;2023-05-25T09:16:37;101352.94;;;18.32;nan
68855;BME280;69984;-43.570;172.580;2023-05-25T09:19:04;101347.38;;;18.64;nan
68855;BME280;69984;-43.570;172.580;2023-05-25T09:21:31;101343.50;;;18.52;nan
68855;BME280;69984;-43.570;172.580;2023-05-25T09:23:59;101351.56;;;18.59;nan
68855;BME280;69984;-43.570;172.580;2023-05-25T09:26:27;101346.06;;;18.89;nan
68855;BME280;69984;-43.570;172.580;2023-05-25T09:28:54;101339.09;;;18.59;nan
68855;BME280;69984;-43.570;172.580;2023-05-25T09:31:23;101335.72;;;18.65;nan
68855;BME280;69984;-43.570;172.580;2023-05-25T09:33:51;101339.84;;;18.30;nan
68855;BME280;69984;-43.570;172.580;2023-05-25T09:36:25;101353.69;;;18.40;nan
68855;BME280;69984;-43.570;172.580;2023-05-25T09:38:55;101338.72;;;18.10;nan
68855;BME280;69984;-43.570;172.580;2023-05-25T09:41:23;101341.28;;;18.18;nan
68855;BME280;69984;-43.570;172.580;2023-05-25T09:43:52;101333.69;;;18.53;nan
68855;BME280;69984;-43.570;172.580;2023-05-25T09:46:20;101335.72;;;18.51;nan
68855;BME280;69984;-43.570;172.580;2023-05-25T09:48:47;101334.31;;;18.40;nan
68855;BME280;69984;-43.570;172.580;2023-05-25T09:51:18;101318.34;;;18.25;nan
68855;BME280;69984;-43.570;172.580;2023-05-25T09:53:46;101312.19;;;17.65;nan
68855;BME280;69984;-43.570;172.580;2023-05-25T09:56:13;101307.19;;;17.92;nan
68855;BME280;69984;-43.570;172.580;2023-05-25T09:58:42;101313.28;;;18.16;nan
68855;BME280;69984;-43.570;172.580;2023-05-25T10:01:10;101317.59;;;18.69;nan
68855;BME280;69984;-43.570;172.580;2023-05-25T10:03:45;101314.59;;;18.57;nan
68855;BME280;69984;-43.570;172.580;2023-05-25T10:06:16;101312.19;;;19.06;nan
68855;BME280;69984;-43.570;172.580;2023-05-25T10:08:44;101310.38;;;18.77;nan
68855;BME280;69984;-43.570;172.580;2023-05-25T10:11:15;101304.97;;;18.56;nan
68855;BME280;69984;-43.570;172.580;2023-05-25T10:13:44;101308.38;;;18.27;nan
68855;BME280;69984;-43.570;172.580;2023-05-25T10:16:15;101305.59;;;18.21;nan
68855;BME280;69984;-43.570;172.580;2023-05-25T10:18:50;101292.38;;;18.35;nan
68855;BME280;69984;-43.570;172.580;2023-05-25T10:21:18;101302.44;;;18.25;nan
68855;BME280;69984;-43.570;172.580;2023-05-25T10:23:53;101296.16;;;17.81;nan
68855;BME280;69984;-43.570;172.580;2023-05-25T10:26:25;101301.59;;;17.65;nan
68855;BME280;69984;-43.570;172.580;2023-05-25T10:28:57;101294.75;;;17.70;nan
68855;BME280;69984;-43.570;172.580;2023-05-25T10:31:32;101287.06;;;17.98;nan
68855;BME280;69984;-43.570;172.580;2023-05-25T10:34:02;101292.78;;;18.10;nan
68855;BME280;69984;-43.570;172.580;2023-05-25T10:36:33;101292.72;;;18.18;nan
68855;BME280;69984;-43.570;172.580;2023-05-25T10:39:01;101276.72;;;18.26;nan
68855;BME280;69984;-43.570;172.580;2023-05-25T10:41:28;101274.22;;;18.24;nan
68855;BME280;69984;-43.570;172.580;2023-05-25T10:43:56;101277.94;;;18.01;nan
68855;BME280;69984;-43.570;172.580;2023-05-25T10:46:23;101274.09;;;18.03;nan
68855;BME280;69984;-43.570;172.580;2023-05-25T10:48:51;101265.38;;;17.94;nan
68855;BME280;69984;-43.570;172.580;2023-05-25T10:51:21;101267.97;;;18.03;nan
68855;BME280;69984;-43.570;172.580;2023-05-25T10:53:58;101274.88;;;17.89;nan
68855;BME280;69984;-43.570;172.580;2023-05-25T10:56:27;101274.72;;;17.90;nan
68855;BME280;69984;-43.570;172.580;2023-05-25T10:58:54;101264.47;;;18.02;nan
68855;BME280;69984;-43.570;172.580;2023-05-25T11:01:22;101247.66;;;18.10;nan
68855;BME280;69984;-43.570;172.580;2023-05-25T11:06:21;101249.81;;;17.23;nan
68855;BME280;69984;-43.570;172.580;2023-05-25T11:08:54;101241.25;;;17.67;nan
68855;BME280;69984;-43.570;172.580;2023-05-25T11:17:28;101239.97;;;17.32;nan
68855;BME280;69984;-43.570;172.580;2023-05-25T11:19:59;101238.84;;;17.80;nan
68855;BME280;69984;-43.570;172.580;2023-05-25T11:22:34;101241.44;;;18.03;nan
68855;BME280;69984;-43.570;172.580;2023-05-25T11:25:35;101229.78;;;17.89;nan
68855;BME280;69984;-43.570;172.580;2023-05-25T11:28:04;101233.25;;;17.75;nan
68855;BME280;69984;-43.570;172.580;2023-05-25T11:30:31;101225.44;;;17.96;nan
68855;BME280;69984;-43.570;172.580;2023-05-25T11:33:02;101235.31;;;18.02;nan
68855;BME280;69984;-43.570;172.580;2023-05-25T11:35:33;101227.63;;;17.92;nan
68855;BME280;69984;-43.570;172.580;2023-05-25T11:38:04;101240.50;;;17.58;nan
68855;BME280;69984;-43.570;172.580;2023-05-25T11:40:32;101231.94;;;17.48;nan
68855;BME280;69984;-43.570;172.580;2023-05-25T11:43:00;101228.25;;;17.80;nan
68855;BME280;69984;-43.570;172.580;2023-05-25T11:45:29;101220.31;;;17.49;nan
68855;BME280;69984;-43.570;172.580;2023-05-25T11:47:58;101219.72;;;17.84;nan
68855;BME280;69984;-43.570;172.580;2023-05-25T11:50:25;101207.03;;;16.81;nan
68855;BME280;69984;-43.570;172.580;2023-05-25T11:52:53;101204.91;;;16.68;nan
68855;BME280;69984;-43.570;172.580;2023-05-25T11:55:20;101206.66;;;17.15;nan
68855;BME280;69984;-43.570;172.580;2023-05-25T11:57:55;101208.94;;;17.86;nan
68855;BME280;69984;-43.570;172.580;2023-05-25T12:00:26;101203.44;;;17.73;nan
68855;BME280;69984;-43.570;172.580;2023-05-25T12:02:53;101204.94;;;17.22;nan
68855;BME280;69984;-43.570;172.580;2023-05-25T12:05:21;101202.09;;;17.91;nan
68855;BME280;69984;-43.570;172.580;2023-05-25T12:07:49;101198.25;;;17.57;nan
68855;BME280;69984;-43.570;172.580;2023-05-25T12:10:17;101196.28;;;17.73;nan
68855;BME280;69984;-43.570;172.580;2023-05-25T12:12:45;101192.84;;;16.74;nan
68855;BME280;69984;-43.570;172.580;2023-05-25T12:15:20;101189.41;;;17.19;nan
68855;BME280;69984;-43.570;172.580;2023-05-25T12:17:48;101193.31;;;17.91;nan
68855;BME280;69984;-43.570;172.580;2023-05-25T12:20:16;101182.88;;;17.89;nan
68855;BME280;69984;-43.570;172.580;2023-05-25T12:22:44;101184.22;;;17.48;nan
68855;BME280;69984;-43.570;172.580;2023-05-25T12:25:13;101178.34;;;17.61;nan
68855;BME280;69984;-43.570;172.580;2023-05-25T12:27:41;101181.47;;;17.41;nan
68855;BME280;69984;-43.570;172.580;2023-05-25T12:30:10;101182.47;;;17.40;nan
68855;BME280;69984;-43.570;172.580;2023-05-25T12:32:59;101174.59;;;17.70;nan
68855;BME280;69984;-43.570;172.580;2023-05-25T12:35:46;101174.38;;;17.79;nan
68855;BME280;69984;-43.570;172.580;2023-05-25T12:38:16;101173.16;;;17.44;nan
68855;BME280;69984;-43.570;172.580;2023-05-25T12:40:43;101168.59;;;17.53;nan
68855;BME280;69984;-43.570;172.580;2023-05-25T12:43:10;101174.03;;;17.97;nan
68855;BME280;69984;-43.570;172.580;2023-05-25T12:45:42;101166.44;;;18.09;nan
68855;BME280;69984;-43.570;172.580;2023-05-25T12:48:09;101151.00;;;17.98;nan
68855;BME280;69984;-43.570;172.580;2023-05-25T12:50:37;101145.41;;;17.92;nan
68855;BME280;69984;-43.570;172.580;2023-05-25T12:53:04;101145.91;;;17.73;nan
68855;BME280;69984;-43.570;172.580;2023-05-25T12:55:32;101146.09;;;17.72;nan
68855;BME280;69984;-43.570;172.580;2023-05-25T12:58:05;101147.91;;;17.57;nan
68855;BME280;69984;-43.570;172.580;2023-05-25T13:00:35;101137.66;;;16.85;nan
68855;BME280;69984;-43.570;172.580;2023-05-25T13:03:01;101145.72;;;17.60;nan
68855;BME280;69984;-43.570;172.580;2023-05-25T13:05:30;101144.91;;;17.14;nan